Weather observations for the past three days for
Fairmont, Fairmont Municipal Airport
Metric (Imperial)
Date Time (cdt) Wind (kph) Vis. (km) Weather Sky Cond. Temperature (ºC) Relative Humidity Wind Chill (°C) Heat Index (°C) Pressure Precipitation (cm)
Air Dwpt 6 hour altimeter (cm) sea level (mb) 1 hr 3 hr 6 hr
Max. Min.
04 07:56 W 31 16.09 Fair CLR 16.7 3.3 41% 74.96 999.2
04 06:56 SW 28 G 41 16.09 Fair CLR 15 3.3 15 11.7 46% 74.93 998.9
04 05:56 SW 30 16.09 Fair CLR 13.9 2.2 45% 74.96 999.3
04 04:56 SW 26 16.09 Fair CLR 13.3 2.2 47% 75.01 1000.0
04 03:56 SW 19 16.09 Fair CLR 12.2 2.2 51% 75.06 1000.7
04 02:56 SW 19 16.09 Fair CLR 12.8 2.2 49% 75.13 1001.6
04 01:56 SW 20 16.09 Fair CLR 13.3 1.7 46% 75.18 1002.5
04 00:56 SW 15 16.09 Fair CLR 12.8 1.7 21.1 11.1 47% 75.29 1003.7
03 23:56 SW 9 16.09 Fair CLR 11.7 0.6 47% 75.34 1004.6
03 22:56 SW 15 16.09 Fair CLR 14.4 0 38% 75.41 1005.5
03 21:56 W 13 16.09 Fair CLR 15 -1.7 32% 75.46 1006.4
03 20:56 W 13 16.09 Fair CLR 17.8 -1.1 28% 75.46 1006.1
03 19:56 W 13 16.09 Fair CLR 20 0.6 27% 75.46 1006.2
03 18:56 NW 17 16.09 Fair CLR 21.1 -0.6 21.7 19.4 23% 75.49 1006.6
03 17:56 NW 30 G 37 16.09 Fair CLR 21.7 -0.6 23% 75.51 1007.0
03 16:56 NW 19 G 35 16.09 Fair CLR 21.7 -0.6 23% 75.54 1007.4
03 15:56 NW 28 G 39 16.09 Fair CLR 21.7 0.6 25% 75.59 1007.9
03 14:56 NW 35 G 43 16.09 Fair and Breezy CLR 21.1 0.6 26% 75.62 1008.3
03 13:56 NW 31 G 44 16.09 Fair CLR 20.6 0 25% 75.64 1008.7
03 12:56 N 31 G 48 16.09 Fair CLR 19.4 0.6 20 10.6 29% 75.69 1009.3
03 11:56 NW 33 G 43 16.09 Fair and Breezy CLR 19.4 2.8 33% 75.69 1009.3
03 10:56 NW 39 G 44 16.09 Fair and Breezy CLR 17.8 2.8 37% 75.69 1009.2
03 09:56 NW 33 G 41 16.09 Fair and Breezy CLR 16.1 2.8 41% 75.69 1009.3
03 08:56 NW 33 G 41 16.09 Fair and Breezy CLR 13.9 2.2 45% 75.64 1008.8
03 07:56 NW 31 G 41 16.09 Fair CLR 12.2 2.2 51% 75.59 1008.0
03 06:56 NW 22 16.09 Fair CLR 10.6 2.2 13.9 8.9 56% 75.51 1007.1
03 05:56 W 13 16.09 Fair CLR 10 0.6 52% 8 75.49 1006.8
03 04:56 SW 15 16.09 Fair CLR 10 0 50% 8 75.51 1007.1
03 03:56 S 15 16.09 Fair CLR 9.4 0 52% 7 75.57 1007.7
03 02:56 SE 17 16.09 Overcast OVC110 12.2 -0.6 42% 75.62 1008.3
03 01:56 S 33 16.09 Overcast and Breezy FEW080 OVC095 13.3 -1.1 37% 75.59 1008.2
03 00:56 S 28 16.09 Light Rain FEW075 OVC090 13.9 -0.6 18.3 13.3 37% 75.69 1009.5
02 23:56 S 24 16.09 Overcast OVC100 15 -1.1 33% 75.77 1010.5
02 22:56 S 20 16.09 Mostly Cloudy BKN095 13.9 0 39% 75.82 1011.2
02 21:56 S 13 16.09 A Few Clouds FEW110 13.3 0.6 42% 75.87 1012.0
02 20:56 S 13 16.09 Overcast OVC100 16.1 -0.6 32% 75.9 1012.4
02 19:56 SW 15 16.09 Mostly Cloudy BKN095 17.2 -0.6 30% 75.92 1012.9
02 18:56 SW 26 16.09 Mostly Cloudy BKN110 18.3 -1.7 18.9 15 26% 75.95 1013.1
02 17:56 W 22 16.09 Fair CLR 18.3 -1.1 27% 76 1013.9
02 16:56 SW 22 16.09 Fair CLR 17.8 -1.1 28% 76.05 1014.7
02 15:56 W 24 G 31 16.09 Fair CLR 18.3 -1.1 27% 76.12 1015.5
02 14:56 W 9 16.09 Fair CLR 17.2 -1.7 28% 76.2 1016.7
02 13:56 W 11 16.09 Fair CLR 16.1 -1.7 30% 76.28 1017.6
02 12:56 W 17 G 31 16.09 Fair CLR 14.4 -2.8 15 2.8 31% 76.35 1018.8
02 11:56 NW 15 16.09 Fair CLR 14.4 -2.8 31% 76.43 1019.7
02 10:56 W 17 16.09 Fair CLR 12.2 -3.9 33% 76.48 1020.3
02 09:56 W 20 16.09 Fair CLR 11.1 -3.3 37% 76.5 1020.7
02 08:56 W 24 16.09 Fair CLR 9.4 -1.7 46% 7 76.53 1021.2
02 07:56 W 17 16.09 Fair CLR 6.1 -1.7 58% 3 76.53 1021.4
02 06:56 W 15 16.09 Fair CLR 2.8 -1.7 2.8 1.1 73% -1 76.53 1021.3
02 05:56 W 17 16.09 Fair CLR 2.2 -2.8 70% -2 76.53 1021.3
02 04:56 W 15 16.09 Fair CLR 2.2 -3.3 67% -1 76.53 1021.3
02 03:56 W 7 16.09 Fair CLR 2.2 -3.3 67% 0 76.5 1021.2
02 02:56 W 9 16.09 Fair CLR 2.2 -3.3 67% -0 76.5 1021.0
02 01:56 W 7 16.09 Fair CLR 1.7 -2.8 72% -0 76.53 1021.5
02 00:56 W 9 16.09 Fair CLR 2.2 -1.7 11.1 2.2 76% -0 76.53 1021.7
01 23:56 W 7 16.09 Fair CLR 3.3 -2.2 68% 2 76.53 1021.4
01 22:56 NW 6 16.09 Fair CLR 5.6 -3.3 53% 76.53 1021.2
01 21:56 NW 6 16.09 Fair CLR 6.1 -3.3 51% 76.53 1021.4
01 20:56 N 11 16.09 Mostly Cloudy BKN070 7.8 -4.4 42% 6 76.48 1020.8
01 19:56 N 17 16.09 Mostly Cloudy BKN070 9.4 -4.4 38% 7 76.45 1020.3
01 18:56 N 20 16.09 Overcast OVC070 11.1 -5 11.7 9.4 32% 76.43 1019.9
01 17:56 N 20 16.09 Overcast OVC075 10.6 -5 33% 76.4 1019.8
01 16:56 NW 15 16.09 Partly Cloudy SCT070 10.6 -5 33% 76.4 1019.7
01 15:56 N 20 16.09 Mostly Cloudy BKN070 11.1 -5 32% 76.4 1019.6
01 14:56 N 15 16.09 Overcast OVC070 10.6 -4.4 35% 76.43 1019.8
01 13:56 NW 19 16.09 Overcast OVC070 10 -3.9 38% 8 76.4 1019.7
01 12:56 N 11 16.09 Overcast BKN055 OVC070 9.4 -2.8 10 2.2 43% 8 76.43 1019.9
01 11:56 N 17 16.09 Mostly Cloudy FEW038 BKN050 BKN065 8.9 -1.1 50% 7 76.43 1019.9
01 10:56 N 19 16.09 Mostly Cloudy SCT023 BKN060 8.3 1.7 63% 6 76.4 1019.7
01 09:56 N 17 16.09 Overcast FEW015 OVC060 6.1 2.8 80% 3 76.4 1019.8
01 08:56 NW 19 16.09 Partly Cloudy SCT070 5.6 2.8 82% 2 76.38 1019.5
Date Time (cdt) Wind (kph) Vis. (km) Weather Sky Cond. Air Dwpt Max. Min. Relative Humidity Wind Chill (°C) Heat Index (°C) altimeter (cm) sea level (mb) 1 hr 3 hr 6 hr
6 hour
Temperature (ºC) Pressure Precipitation (cm)